Farley, Iowa
Current Conditions -  °F | °C
As of 3:53 AM on Thursday 27 Nov 2014 (Local Time) from KDBQ Reporting Station
Overcast Overcast  
Wind Chill: 12°   Ceiling: 2400
Heat Index: 23°   Visibility: 9mi
Dew Point: 18°   Wind: 12mph
Humidity: 81%   Direction: 330°NNW
Pressure: 30.3"   Gusts: NA
Location:  42.44°N, 91.01°W
Report Text: KDBQ 270953Z AUTO 33010KT 9SM OVC024 M05/M08 A3030 RMK AO2 SLP276 T10501078
Loading
Personal Weather Stations






























Interactive Weather Map New forecast layout! Learn more

10-Day Weather Forecast

Advertisements
Track Severe Weather on mobile